Spaceon02064 — ASD — position and weather

sailwx.info

Track history (hours):
 
Tides and Currents Weather Stations Pressure Air Temp Water Temp Dewpoint Dewpoint Depression Visibility Wind Speed Wind Dir Waves Ship Positions

Spaceon02064

Last reported at 2016-May-30 02:33 UTC. Time now 2016-May-30 03:03 UTC.
Position N 23°05' E 113°28'.

Length 6 m.

Type: Ship. MMSI: 200902064.

Date/timePositionNaut miles runAvg speedWind from/ knotsBaromVisibWave heightAir tempDewpointWater temp
2016-May-30 02:33N 23°05' E 113°28'0 0.0
2016-May-30 01:33N 23°05' E 113°28'0 0.0
2016-May-30 00:27N 23°05' E 113°28'2 2.5
2016-May-29 23:34N 23°04' E 113°25'662218.4
2016-May-29 20:32N 31°43' E 121°08'8 7.3
2016-May-29 19:23N 31°37' E 121°16'6 6.9
2016-May-29 18:33N 31°33' E 121°20'7 7.0
2016-May-29 17:33N 31°29' E 121°27'6 6.4
2016-May-29 16:33N 31°25' E 121°33'89 4.4
2016-May-28 20:20N 29°59' E 122°02'7 8.7
2016-May-28 19:33N 29°55' E 122°08'626198.9
2016-May-28 16:25N 23°02' E 113°22'6 1.1
2016-May-28 11:28N 23°05' E 113°28'0 0.2
2016-May-28 10:18N 23°05' E 113°28'0 0.1
2016-May-28 09:18N 23°05' E 113°27'0 0.0
2016-May-28 08:28N 23°05' E 113°27'0 0.0
2016-May-28 07:30N 23°05' E 113°27'0 0.0
2016-May-28 06:27N 23°05' E 113°27'0 0.0
2016-May-28 05:33N 23°05' E 113°27'0 0.0
2016-May-28 04:33N 23°05' E 113°27'0 0.1
2016-May-28 03:21N 23°05' E 113°28'0 0.0
2016-May-28 02:24N 23°05' E 113°28'61922.2
2016-May-26 22:32N 29°57' E 122°04'82 6.3
2016-May-26 09:28N 31°17' E 121°44'7 7.6
2016-May-26 08:33N 31°21' E 121°38'6 6.1
2016-May-26 07:33N 31°24' E 121°31'3 3.0
2016-May-26 06:26N 31°20' E 121°32'0 0.0
2016-May-26 05:20N 31°20' E 121°32'0 0.0
2016-May-26 04:05N 31°20' E 121°32'0 0.2
2016-May-26 03:23N 31°21' E 121°32'5 2.4
2016-May-26 01:21N 31°16' E 121°32'0 0.0
2016-May-26 00:12N 31°16' E 121°32'0 0.0
2016-May-25 23:33N 31°16' E 121°32'0 0.0
2016-May-25 22:27N 31°16' E 121°32'0 0.0
2016-May-25 21:33N 31°16' E 121°32'0 0.0
2016-May-25 20:06N 31°16' E 121°32'0 0.0
2016-May-25 19:27N 31°16' E 121°32'0 0.0
2016-May-25 18:30N 31°16' E 121°32'0 0.0
2016-May-25 17:30N 31°16' E 121°32'0 0.0
2016-May-25 16:29N 31°16' E 121°32'0 0.0
2016-May-25 15:32N 31°16' E 121°32'0 0.0
2016-May-25 14:32N 31°16' E 121°32'0 0.0
2016-May-25 13:32N 31°16' E 121°32'0 0.0
2016-May-25 12:29N 31°16' E 121°32'0 0.0
2016-May-25 11:32N 31°16' E 121°32'845849.9
2016-May-25 10:32N 21°18' E 110°25'8455375.9
2016-May-25 10:23N 31°16' E 121°32'0 0.0
2016-May-25 09:32N 31°16' E 121°32'0 0.0
2016-May-25 04:31N 31°16' E 121°32'0 0.0
2016-May-25 03:25N 31°16' E 121°32'0 0.0
2016-May-25 01:19N 31°16' E 121°32'0 0.0
2016-May-25 00:31N 31°16' E 121°32'0 0.0
2016-May-24 23:31N 31°16' E 121°32'0 0.0
2016-May-24 22:25N 31°16' E 121°32'0 0.0
2016-May-24 20:07N 31°16' E 121°32'0 0.0
2016-May-24 19:31N 31°16' E 121°32'0 0.0
2016-May-24 18:27N 31°16' E 121°32'0 0.0
2016-May-24 17:30N 31°16' E 121°32'8917.0
2016-May-24 12:15N 29°52' E 122°08'3 5.0
2016-May-24 11:33N 29°55' E 122°07'8677.1
2016-May-24 10:26N 31°16' E 121°32'0 0.0
2016-May-24 09:29N 31°16' E 121°32'0 0.0
2016-May-24 08:26N 31°16' E 121°32'0 0.0
2016-May-24 07:32N 31°16' E 121°32'3796.2
2016-May-24 07:09N 31°45' E 121°06'3758.9
2016-May-24 06:32N 31°16' E 121°32'321990.2
2016-May-24 06:31N 31°41' E 121°10'3231.0
2016-May-24 05:29N 31°16' E 121°32'0 0.0
2016-May-24 04:20N 31°16' E 121°32'10 5.4
2016-May-24 02:33N 31°25' E 121°30'1076.6
2016-May-24 02:26N 31°16' E 121°32'0 0.0
2016-May-24 01:29N 31°16' E 121°32'0 0.0
2016-May-24 00:26N 31°16' E 121°32'20 4.2
2016-May-23 19:33N 31°33' E 121°20'13400.0
2016-May-23 19:31N 31°24' E 121°31'9 7.7
2016-May-23 18:25N 31°16' E 121°32'0 0.0
2016-May-23 17:25N 31°16' E 121°32'8925.3
2016-May-23 17:25N 31°24' E 121°31'3 3.4
2016-May-23 16:34N 31°22' E 121°29'777.1
2016-May-23 16:28N 31°16' E 121°32'0 0.0
2016-May-23 15:28N 31°16' E 121°32'7241.0
2016-May-23 15:26N 31°22' E 121°28'0 0.0
2016-May-23 14:31N 31°22' E 121°28'0 0.0
2016-May-23 13:32N 31°22' E 121°28'0 0.0
2016-May-23 12:32N 31°22' E 121°28'744.1
2016-May-23 12:22N 31°16' E 121°32'7 7.7
2016-May-23 11:25N 31°22' E 121°28'736.5
2016-May-23 11:13N 31°16' E 121°32'0 0.0
2016-May-23 10:29N 31°16' E 121°32'749.4
2016-May-23 10:20N 31°22' E 121°28'0 0.0
2016-May-23 09:31N 31°22' E 121°28'772.0
2016-May-23 09:25N 31°16' E 121°32'1 1.5
2016-May-23 08:33N 31°16' E 121°34'7323.0
2016-May-23 08:32N 31°22' E 121°28'2 2.0
2016-May-23 07:32N 31°22' E 121°30'298.4
2016-May-23 07:31N 31°22' E 121°28'8 8.9
2016-May-23 06:33N 31°22' E 121°38'867.0
2016-May-23 06:26N 31°22' E 121°28'0 0.0
2016-May-23 05:32N 31°22' E 121°28'0 0.0
2016-May-23 04:31N 31°22' E 121°28'0 0.0
2016-May-23 03:32N 31°22' E 121°28'0 0.0
2016-May-23 02:20N 31°22' E 121°28'0 0.0
2016-May-23 01:26N 31°22' E 121°28'0 0.0
2016-May-23 00:29N 31°22' E 121°28'0 0.0
2016-May-22 23:32N 31°22' E 121°28'0 0.0
2016-May-22 22:20N 31°22' E 121°28'0 0.0
2016-May-22 21:32N 31°22' E 121°28'0 0.0
2016-May-22 20:32N 31°22' E 121°28'0 0.0
2016-May-22 19:25N 31°22' E 121°28'0 0.0
2016-May-22 18:32N 31°22' E 121°28'0 0.0
2016-May-22 17:32N 31°22' E 121°28'0 0.0
2016-May-22 16:19N 31°22' E 121°28'0 0.0
2016-May-22 15:32N 31°22' E 121°28'0 0.0
2016-May-22 14:32N 31°22' E 121°28'0 0.0
2016-May-22 13:30N 31°22' E 121°28'0 0.0
2016-May-22 12:26N 31°22' E 121°28'0 0.0
2016-May-22 11:29N 31°22' E 121°28'0 0.1
2016-May-22 10:32N 31°22' E 121°28'0 0.0
2016-May-22 09:32N 31°22' E 121°28'21 3.0
2016-May-22 02:23N 31°00' E 121°26'64358.9
2016-May-21 15:28N 23°02' E 113°22'97964.5
2016-May-21 00:17N 37°43' E 121°37'3 3.9
2016-May-20 23:24N 37°43' E 121°41'977200.5
2016-May-20 18:32N 23°03' E 113°31'3 3.3
2016-May-20 17:32N 23°05' E 113°28'0 0.0
2016-May-20 16:32N 23°05' E 113°28'0 0.0
2016-May-20 15:26N 23°05' E 113°28'0 0.0
2016-May-20 14:32N 23°05' E 113°28'0 0.0
2016-May-20 13:20N 23°05' E 113°28'0 0.0
2016-May-20 12:32N 23°05' E 113°28'0 0.0
2016-May-20 11:33N 23°05' E 113°28'0 0.0
2016-May-20 10:08N 23°05' E 113°28'0 0.0
2016-May-20 09:33N 23°05' E 113°28'0 0.0
2016-May-20 08:33N 23°05' E 113°28'0 0.0
2016-May-20 07:32N 23°05' E 113°28'1 1.5
2016-May-20 06:34N 23°04' E 113°29'  
Track history (hours):
 
Tides and Currents Weather Stations Pressure Air Temp Water Temp Dewpoint Dewpoint Depression Visibility Wind Speed Wind Dir Waves Ship Positions

Spaceon02064

Last reported at 2016-May-30 02:33 UTC. Time now 2016-May-30 03:03 UTC.
Position N 23°05' E 113°28'.

Length 6 m.

Type: Ship. MMSI: 200902064.

Date/timePositionNaut miles runAvg speedWind from/ knotsBaromVisibWave heightAir tempDewpointWater temp
2016-May-30 02:33N 23°05' E 113°28'0 0.0
2016-May-30 01:33N 23°05' E 113°28'0 0.0
2016-May-30 00:27N 23°05' E 113°28'2 2.5
2016-May-29 23:34N 23°04' E 113°25'662218.4
2016-May-29 20:32N 31°43' E 121°08'8 7.3
2016-May-29 19:23N 31°37' E 121°16'6 6.9
2016-May-29 18:33N 31°33' E 121°20'7 7.0
2016-May-29 17:33N 31°29' E 121°27'6 6.4
2016-May-29 16:33N 31°25' E 121°33'89 4.4
2016-May-28 20:20N 29°59' E 122°02'7 8.7
2016-May-28 19:33N 29°55' E 122°08'626198.9
2016-May-28 16:25N 23°02' E 113°22'6 1.1
2016-May-28 11:28N 23°05' E 113°28'0 0.2
2016-May-28 10:18N 23°05' E 113°28'0 0.1
2016-May-28 09:18N 23°05' E 113°27'0 0.0
2016-May-28 08:28N 23°05' E 113°27'0 0.0
2016-May-28 07:30N 23°05' E 113°27'0 0.0
2016-May-28 06:27N 23°05' E 113°27'0 0.0
2016-May-28 05:33N 23°05' E 113°27'0 0.0
2016-May-28 04:33N 23°05' E 113°27'0 0.1
2016-May-28 03:21N 23°05' E 113°28'0 0.0
2016-May-28 02:24N 23°05' E 113°28'61922.2
2016-May-26 22:32N 29°57' E 122°04'82 6.3
2016-May-26 09:28N 31°17' E 121°44'7 7.6
2016-May-26 08:33N 31°21' E 121°38'6 6.1
2016-May-26 07:33N 31°24' E 121°31'3 3.0
2016-May-26 06:26N 31°20' E 121°32'0 0.0
2016-May-26 05:20N 31°20' E 121°32'0 0.0
2016-May-26 04:05N 31°20' E 121°32'0 0.2
2016-May-26 03:23N 31°21' E 121°32'5 2.4
2016-May-26 01:21N 31°16' E 121°32'0 0.0
2016-May-26 00:12N 31°16' E 121°32'0 0.0
2016-May-25 23:33N 31°16' E 121°32'0 0.0
2016-May-25 22:27N 31°16' E 121°32'0 0.0
2016-May-25 21:33N 31°16' E 121°32'0 0.0
2016-May-25 20:06N 31°16' E 121°32'0 0.0
2016-May-25 19:27N 31°16' E 121°32'0 0.0
2016-May-25 18:30N 31°16' E 121°32'0 0.0
2016-May-25 17:30N 31°16' E 121°32'0 0.0
2016-May-25 16:29N 31°16' E 121°32'0 0.0
2016-May-25 15:32N 31°16' E 121°32'0 0.0
2016-May-25 14:32N 31°16' E 121°32'0 0.0
2016-May-25 13:32N 31°16' E 121°32'0 0.0
2016-May-25 12:29N 31°16' E 121°32'0 0.0
2016-May-25 11:32N 31°16' E 121°32'845849.9
2016-May-25 10:32N 21°18' E 110°25'8455375.9
2016-May-25 10:23N 31°16' E 121°32'0 0.0
2016-May-25 09:32N 31°16' E 121°32'0 0.0
2016-May-25 04:31N 31°16' E 121°32'0 0.0
2016-May-25 03:25N 31°16' E 121°32'0 0.0
2016-May-25 01:19N 31°16' E 121°32'0 0.0
2016-May-25 00:31N 31°16' E 121°32'0 0.0
2016-May-24 23:31N 31°16' E 121°32'0 0.0
2016-May-24 22:25N 31°16' E 121°32'0 0.0
2016-May-24 20:07N 31°16' E 121°32'0 0.0
2016-May-24 19:31N 31°16' E 121°32'0 0.0
2016-May-24 18:27N 31°16' E 121°32'0 0.0
2016-May-24 17:30N 31°16' E 121°32'8917.0
2016-May-24 12:15N 29°52' E 122°08'3 5.0
2016-May-24 11:33N 29°55' E 122°07'8677.1
2016-May-24 10:26N 31°16' E 121°32'0 0.0
2016-May-24 09:29N 31°16' E 121°32'0 0.0
2016-May-24 08:26N 31°16' E 121°32'0 0.0
2016-May-24 07:32N 31°16' E 121°32'3796.2
2016-May-24 07:09N 31°45' E 121°06'3758.9
2016-May-24 06:32N 31°16' E 121°32'321990.2
2016-May-24 06:31N 31°41' E 121°10'3231.0
2016-May-24 05:29N 31°16' E 121°32'0 0.0
2016-May-24 04:20N 31°16' E 121°32'10 5.4
2016-May-24 02:33N 31°25' E 121°30'1076.6
2016-May-24 02:26N 31°16' E 121°32'0 0.0
2016-May-24 01:29N 31°16' E 121°32'0 0.0
2016-May-24 00:26N 31°16' E 121°32'20 4.2
2016-May-23 19:33N 31°33' E 121°20'13400.0
2016-May-23 19:31N 31°24' E 121°31'9 7.7
2016-May-23 18:25N 31°16' E 121°32'0 0.0
2016-May-23 17:25N 31°16' E 121°32'8925.3
2016-May-23 17:25N 31°24' E 121°31'3 3.4
2016-May-23 16:34N 31°22' E 121°29'777.1
2016-May-23 16:28N 31°16' E 121°32'0 0.0
2016-May-23 15:28N 31°16' E 121°32'7241.0
2016-May-23 15:26N 31°22' E 121°28'0 0.0
2016-May-23 14:31N 31°22' E 121°28'0 0.0
2016-May-23 13:32N 31°22' E 121°28'0 0.0
2016-May-23 12:32N 31°22' E 121°28'744.1
2016-May-23 12:22N 31°16' E 121°32'7 7.7
2016-May-23 11:25N 31°22' E 121°28'736.5
2016-May-23 11:13N 31°16' E 121°32'0 0.0
2016-May-23 10:29N 31°16' E 121°32'749.4
2016-May-23 10:20N 31°22' E 121°28'0 0.0
2016-May-23 09:31N 31°22' E 121°28'772.0
2016-May-23 09:25N 31°16' E 121°32'1 1.5
2016-May-23 08:33N 31°16' E 121°34'7323.0
2016-May-23 08:32N 31°22' E 121°28'2 2.0
2016-May-23 07:32N 31°22' E 121°30'298.4
2016-May-23 07:31N 31°22' E 121°28'8 8.9
2016-May-23 06:33N 31°22' E 121°38'867.0
2016-May-23 06:26N 31°22' E 121°28'0 0.0
2016-May-23 05:32N 31°22' E 121°28'0 0.0
2016-May-23 04:31N 31°22' E 121°28'0 0.0
2016-May-23 03:32N 31°22' E 121°28'0 0.0
2016-May-23 02:20N 31°22' E 121°28'0 0.0
2016-May-23 01:26N 31°22' E 121°28'0 0.0
2016-May-23 00:29N 31°22' E 121°28'0 0.0
2016-May-22 23:32N 31°22' E 121°28'0 0.0
2016-May-22 22:20N 31°22' E 121°28'0 0.0
2016-May-22 21:32N 31°22' E 121°28'0 0.0
2016-May-22 20:32N 31°22' E 121°28'0 0.0
2016-May-22 19:25N 31°22' E 121°28'0 0.0
2016-May-22 18:32N 31°22' E 121°28'0 0.0
2016-May-22 17:32N 31°22' E 121°28'0 0.0
2016-May-22 16:19N 31°22' E 121°28'0 0.0
2016-May-22 15:32N 31°22' E 121°28'0 0.0
2016-May-22 14:32N 31°22' E 121°28'0 0.0
2016-May-22 13:30N 31°22' E 121°28'0 0.0
2016-May-22 12:26N 31°22' E 121°28'0 0.0
2016-May-22 11:29N 31°22' E 121°28'0 0.1
2016-May-22 10:32N 31°22' E 121°28'0 0.0
2016-May-22 09:32N 31°22' E 121°28'21 3.0
2016-May-22 02:23N 31°00' E 121°26'64358.9
2016-May-21 15:28N 23°02' E 113°22'97964.5
2016-May-21 00:17N 37°43' E 121°37'3 3.9
2016-May-20 23:24N 37°43' E 121°41'977200.5
2016-May-20 18:32N 23°03' E 113°31'3 3.3
2016-May-20 17:32N 23°05' E 113°28'0 0.0
2016-May-20 16:32N 23°05' E 113°28'0 0.0
2016-May-20 15:26N 23°05' E 113°28'0 0.0
2016-May-20 14:32N 23°05' E 113°28'0 0.0
2016-May-20 13:20N 23°05' E 113°28'0 0.0
2016-May-20 12:32N 23°05' E 113°28'0 0.0
2016-May-20 11:33N 23°05' E 113°28'0 0.0
2016-May-20 10:08N 23°05' E 113°28'0 0.0
2016-May-20 09:33N 23°05' E 113°28'0 0.0
2016-May-20 08:33N 23°05' E 113°28'0 0.0
2016-May-20 07:32N 23°05' E 113°28'1 1.5
2016-May-20 06:34N 23°04' E 113°29'  

Dump ship's entire track history